createdAt,value
2016-07-16T00:00:25.450Z,0
2016-07-16T00:01:25.640Z,0
2016-07-16T00:02:25.412Z,0
2016-07-16T00:03:25.394Z,0
2016-07-16T00:04:25.419Z,0
2016-07-16T00:05:26.100Z,0
2016-07-16T00:06:26.090Z,0
2016-07-16T00:07:26.068Z,0
2016-07-16T00:08:25.348Z,0
2016-07-16T00:09:26.039Z,0
2016-07-16T00:10:26.029Z,0
2016-07-16T00:11:25.289Z,0
2016-07-16T00:12:25.273Z,0
2016-07-16T00:13:24.550Z,0
2016-07-16T00:14:25.969Z,0
2016-07-16T00:15:24.541Z,0
2016-07-16T00:16:26.606Z,0
2016-07-16T00:17:25.907Z,0
2016-07-16T00:18:25.411Z,0
2016-07-16T00:19:24.479Z,0
2016-07-16T00:20:25.160Z,0
2016-07-16T00:21:25.161Z,0
2016-07-16T00:22:25.876Z,0
2016-07-16T00:23:25.848Z,0
2016-07-16T00:24:25.831Z,0
2016-07-16T00:25:25.871Z,0
2016-07-16T00:26:25.110Z,0
2016-07-16T00:27:25.782Z,0
2016-07-16T00:28:24.330Z,0
2016-07-16T00:29:23.808Z,0
2016-07-16T00:30:25.061Z,0
2016-07-16T00:31:25.726Z,0
2016-07-16T00:32:25.008Z,0
2016-07-16T00:33:25.712Z,0
2016-07-16T00:34:25.008Z,0
2016-07-16T00:35:24.233Z,0
2016-07-16T00:36:25.663Z,0
2016-07-16T00:37:25.655Z,0
2016-07-16T00:38:24.925Z,0
2016-07-16T00:39:24.890Z,0
2016-07-16T00:40:24.220Z,0
2016-07-16T00:41:24.410Z,0
2016-07-16T00:42:25.570Z,0
2016-07-16T00:43:25.560Z,0
2016-07-16T00:44:24.838Z,0
2016-07-16T00:45:24.820Z,0
2016-07-16T00:46:24.812Z,0
2016-07-16T00:47:24.791Z,0
2016-07-16T00:48:25.018Z,0
2016-07-16T00:49:24.768Z,0
2016-07-16T00:50:25.460Z,0
2016-07-16T00:51:24.752Z,0
2016-07-16T00:52:25.424Z,0
2016-07-16T00:53:24.709Z,0
2016-07-16T00:54:25.400Z,0
2016-07-16T00:55:24.681Z,0
2016-07-16T00:56:23.972Z,0
2016-07-16T00:57:24.661Z,0
2016-07-16T00:58:25.430Z,0
2016-07-16T00:59:24.626Z,0
2016-07-16T01:00:25.367Z,0
2016-07-16T01:01:23.870Z,0
2016-07-16T01:02:25.619Z,0
2016-07-16T01:03:25.289Z,0
2016-07-16T01:04:25.270Z,0
2016-07-16T01:05:24.548Z,0
2016-07-16T01:06:23.808Z,0
2016-07-16T01:07:25.220Z,0
2016-07-16T01:08:25.209Z,0
2016-07-16T01:09:23.760Z,0
2016-07-16T01:10:25.222Z,0
2016-07-16T01:11:24.452Z,0
2016-07-16T01:12:23.728Z,0
2016-07-16T01:13:23.039Z,0
2016-07-16T01:14:25.232Z,0
2016-07-16T01:15:25.110Z,0
2016-07-16T01:16:24.418Z,0
2016-07-16T01:17:24.375Z,0
2016-07-16T01:18:24.346Z,0
2016-07-16T01:19:25.039Z,0
2016-07-16T01:20:25.048Z,0
2016-07-16T01:21:23.592Z,0
2016-07-16T01:22:25.028Z,0
2016-07-16T01:23:24.290Z,0
2016-07-16T01:24:24.265Z,0
2016-07-16T01:25:24.261Z,0
2016-07-16T01:26:24.234Z,0
2016-07-16T01:27:24.231Z,0
2016-07-16T01:28:24.929Z,0
2016-07-16T01:29:24.200Z,0
2016-07-16T01:30:24.959Z,0
2016-07-16T01:31:24.871Z,0
2016-07-16T01:32:24.921Z,0
2016-07-16T01:33:24.841Z,0
2016-07-16T01:34:23.397Z,0
2016-07-16T01:35:24.102Z,0
2016-07-16T01:36:24.100Z,0
2016-07-16T01:37:24.801Z,0
2016-07-16T01:38:24.780Z,0
2016-07-16T01:39:24.758Z,0
2016-07-16T01:40:24.757Z,0
2016-07-16T01:41:24.729Z,0
2016-07-16T01:42:24.740Z,0
2016-07-16T01:43:24.920Z,0
2016-07-16T01:44:24.769Z,0
2016-07-16T01:45:24.679Z,0
2016-07-16T01:46:24.691Z,0
2016-07-16T01:47:23.931Z,0
2016-07-16T01:48:24.671Z,0
2016-07-16T01:49:23.900Z,0
2016-07-16T01:50:24.641Z,0
2016-07-16T01:51:24.568Z,0
2016-07-16T01:52:24.633Z,0
2016-07-16T01:53:23.852Z,0
2016-07-16T01:54:24.577Z,0
2016-07-16T01:55:24.528Z,0
2016-07-16T01:56:23.788Z,0
2016-07-16T01:57:23.087Z,0
2016-07-16T01:58:24.547Z,0
2016-07-16T01:59:24.482Z,0
2016-07-16T02:00:23.761Z,0
2016-07-16T02:01:23.737Z,0
2016-07-16T02:02:23.736Z,0
2016-07-16T02:03:23.780Z,0
2016-07-16T02:04:22.981Z,0
2016-07-16T02:05:24.380Z,0
2016-07-16T02:06:22.947Z,0
2016-07-16T02:07:24.366Z,0
2016-07-16T02:08:22.933Z,0
2016-07-16T02:09:24.332Z,0
2016-07-16T02:10:22.890Z,0
2016-07-16T02:11:24.298Z,0
2016-07-16T02:12:24.291Z,0
2016-07-16T02:13:23.547Z,0
2016-07-16T02:14:24.340Z,0
2016-07-16T02:15:22.815Z,0
2016-07-16T02:16:23.508Z,0
2016-07-16T02:17:23.500Z,0
2016-07-16T02:18:24.244Z,0
2016-07-16T02:19:24.200Z,0
2016-07-16T02:20:24.180Z,0
2016-07-16T02:21:22.712Z,0
2016-07-16T02:22:22.719Z,0
2016-07-16T02:23:22.691Z,0
2016-07-16T02:24:23.390Z,0
2016-07-16T02:25:24.109Z,0
2016-07-16T02:26:22.644Z,0
2016-07-16T02:27:23.415Z,0
2016-07-16T02:28:23.352Z,0
2016-07-16T02:29:24.040Z,0
2016-07-16T02:30:24.048Z,0
2016-07-16T02:31:24.020Z,0
2016-07-16T02:32:24.011Z,0
2016-07-16T02:33:23.279Z,0
2016-07-16T02:34:23.270Z,0
2016-07-16T02:35:23.951Z,0
2016-07-16T02:36:23.951Z,0
2016-07-16T02:37:23.920Z,0
2016-07-16T02:38:23.188Z,0
2016-07-16T02:39:24.038Z,0
2016-07-16T02:40:23.170Z,0
2016-07-16T02:41:23.211Z,0
2016-07-16T02:42:23.152Z,0
2016-07-16T02:43:23.150Z,0
2016-07-16T02:44:22.390Z,0
2016-07-16T02:45:23.871Z,0
2016-07-16T02:46:23.793Z,0
2016-07-16T02:47:23.777Z,0
2016-07-16T02:48:23.758Z,0
2016-07-16T02:49:23.090Z,0
2016-07-16T02:50:22.303Z,0
2016-07-16T02:51:23.050Z,0
2016-07-16T02:52:22.271Z,0
2016-07-16T02:53:23.737Z,0
2016-07-16T02:54:22.965Z,0
2016-07-16T02:55:22.949Z,0
2016-07-16T02:56:22.920Z,0
2016-07-16T02:57:22.979Z,0
2016-07-16T02:58:23.601Z,0
2016-07-16T02:59:23.698Z,0
2016-07-16T03:00:22.864Z,0
2016-07-16T03:01:23.631Z,0
2016-07-16T03:02:22.149Z,0
2016-07-16T03:03:22.876Z,0
2016-07-16T03:04:23.525Z,0
2016-07-16T03:05:23.518Z,0
2016-07-16T03:06:23.498Z,0
2016-07-16T03:07:23.571Z,0
2016-07-16T03:08:22.029Z,0
2016-07-16T03:09:23.499Z,0
2016-07-16T03:10:22.003Z,0
2016-07-16T03:11:22.705Z,0
2016-07-16T03:12:22.690Z,0
2016-07-16T03:13:22.671Z,0
2016-07-16T03:14:23.390Z,0
2016-07-16T03:15:23.388Z,0
2016-07-16T03:16:23.360Z,0
2016-07-16T03:17:22.640Z,0
2016-07-16T03:18:22.621Z,0
2016-07-16T03:19:23.305Z,0
2016-07-16T03:20:23.304Z,0
2016-07-16T03:21:22.585Z,0
2016-07-16T03:22:23.260Z,0
2016-07-16T03:23:22.550Z,0
2016-07-16T03:24:21.787Z,0
2016-07-16T03:25:23.221Z,0
2016-07-16T03:26:23.220Z,0
2016-07-16T03:27:22.481Z,0
2016-07-16T03:28:22.451Z,0
2016-07-16T03:29:22.452Z,0
2016-07-16T03:30:23.147Z,0
2016-07-16T03:31:23.191Z,0
2016-07-16T03:32:23.128Z,0
2016-07-16T03:33:22.380Z,0
2016-07-16T03:34:23.100Z,0
2016-07-16T03:35:23.180Z,0
2016-07-16T03:36:23.071Z,0
2016-07-16T03:37:23.100Z,0
2016-07-16T03:38:21.607Z,0
2016-07-16T03:39:22.299Z,0
2016-07-16T03:40:23.021Z,0
2016-07-16T03:41:22.281Z,0
2016-07-16T03:42:23.069Z,0
2016-07-16T03:43:22.248Z,0
2016-07-16T03:44:22.217Z,0
2016-07-16T03:45:22.219Z,0
2016-07-16T03:46:21.527Z,0
2016-07-16T03:47:22.195Z,0
2016-07-16T03:48:22.897Z,5
2016-07-16T03:49:22.949Z,5
2016-07-16T03:50:21.429Z,5
2016-07-16T03:51:22.112Z,5
2016-07-16T03:52:22.830Z,5
2016-07-16T03:53:22.818Z,5
2016-07-16T03:54:22.800Z,5
2016-07-16T03:55:22.780Z,5
2016-07-16T03:56:22.063Z,5
2016-07-16T03:57:22.108Z,5
2016-07-16T03:58:22.738Z,10
2016-07-16T03:59:22.772Z,10
2016-07-16T04:00:22.719Z,10
2016-07-16T04:01:22.738Z,10
2016-07-16T04:02:22.673Z,10
2016-07-16T04:03:22.688Z,10
2016-07-16T04:04:21.956Z,10
2016-07-16T04:05:22.640Z,10
2016-07-16T04:06:22.630Z,10
2016-07-16T04:07:22.630Z,15
2016-07-16T04:08:21.885Z,15
2016-07-16T04:09:21.889Z,15
2016-07-16T04:10:22.579Z,15
2016-07-16T04:11:20.416Z,15
2016-07-16T04:12:22.530Z,15
2016-07-16T04:13:21.819Z,15
2016-07-16T04:14:22.589Z,15
2016-07-16T04:15:22.508Z,20
2016-07-16T04:16:21.066Z,20
2016-07-16T04:17:22.480Z,20
2016-07-16T04:18:22.520Z,20
2016-07-16T04:19:22.450Z,20
2016-07-16T04:20:21.709Z,20
2016-07-16T04:21:22.419Z,20
2016-07-16T04:22:22.418Z,20
2016-07-16T04:23:20.959Z,20
2016-07-16T04:24:20.237Z,15
2016-07-16T04:25:21.649Z,15
2016-07-16T04:26:20.945Z,15
2016-07-16T04:27:22.336Z,15
2016-07-16T04:28:22.391Z,15
2016-07-16T04:29:20.870Z,15
2016-07-16T04:30:22.340Z,15
2016-07-16T04:31:22.279Z,15
2016-07-16T04:32:22.279Z,15
2016-07-16T04:33:22.275Z,15
2016-07-16T04:34:21.580Z,20
2016-07-16T04:35:22.218Z,20
2016-07-16T04:36:22.259Z,20
2016-07-16T04:37:21.473Z,20
2016-07-16T04:38:22.205Z,15
2016-07-16T04:39:22.164Z,15
2016-07-16T04:40:21.448Z,15
2016-07-16T04:41:20.709Z,15
2016-07-16T04:42:21.488Z,15
2016-07-16T04:43:22.107Z,15
2016-07-16T04:44:21.379Z,15
2016-07-16T04:45:22.079Z,15
2016-07-16T04:46:20.636Z,10
2016-07-16T04:47:22.069Z,10
2016-07-16T04:48:22.029Z,10
2016-07-16T04:49:22.032Z,10
2016-07-16T04:50:22.054Z,10
2016-07-16T04:51:21.990Z,10
2016-07-16T04:52:21.258Z,10
2016-07-16T04:53:21.248Z,10
2016-07-16T04:54:21.237Z,10
2016-07-16T04:55:21.219Z,10
2016-07-16T04:56:21.967Z,10
2016-07-16T04:57:21.907Z,10
2016-07-16T04:58:21.188Z,10
2016-07-16T04:59:21.866Z,10
2016-07-16T05:00:21.878Z,10
2016-07-16T05:01:21.122Z,10
2016-07-16T05:02:21.133Z,10
2016-07-16T05:03:21.819Z,10
2016-07-16T05:04:21.820Z,15
2016-07-16T05:05:21.081Z,15
2016-07-16T05:06:21.822Z,15
2016-07-16T05:07:21.070Z,20
2016-07-16T05:08:21.030Z,20
2016-07-16T05:09:21.014Z,20
2016-07-16T05:10:21.709Z,25
2016-07-16T05:11:21.719Z,25
2016-07-16T05:12:20.991Z,25
2016-07-16T05:13:20.248Z,25
2016-07-16T05:14:21.681Z,30
2016-07-16T05:15:20.940Z,30
2016-07-16T05:16:21.657Z,30
2016-07-16T05:17:21.628Z,30
2016-07-16T05:18:21.617Z,30
2016-07-16T05:19:20.950Z,35
2016-07-16T05:20:20.160Z,35
2016-07-16T05:21:21.578Z,35
2016-07-16T05:22:21.545Z,35
2016-07-16T05:23:20.165Z,40
2016-07-16T05:24:20.821Z,40
2016-07-16T05:25:20.987Z,45
2016-07-16T05:26:21.503Z,45
2016-07-16T05:27:20.759Z,50
2016-07-16T05:28:20.752Z,50
2016-07-16T05:29:20.770Z,55
2016-07-16T05:30:21.449Z,55
2016-07-16T05:31:21.442Z,55
2016-07-16T05:32:19.986Z,60
2016-07-16T05:33:20.691Z,60
2016-07-16T05:34:20.677Z,60
2016-07-16T05:35:21.378Z,60
2016-07-16T05:36:21.351Z,55
2016-07-16T05:37:21.351Z,55
2016-07-16T05:38:21.337Z,55
2016-07-16T05:39:21.366Z,50
2016-07-16T05:40:20.600Z,50
2016-07-16T05:41:21.286Z,45
2016-07-16T05:42:21.270Z,45
2016-07-16T05:43:21.279Z,45
2016-07-16T05:44:19.825Z,45
2016-07-16T05:45:19.808Z,45
2016-07-16T05:46:21.240Z,40
2016-07-16T05:47:20.531Z,40
2016-07-16T05:48:20.487Z,40
2016-07-16T05:49:20.531Z,40
2016-07-16T05:50:20.458Z,40
2016-07-16T05:51:21.191Z,45
2016-07-16T05:52:20.426Z,45
2016-07-16T05:53:21.129Z,45
2016-07-16T05:54:21.121Z,45
2016-07-16T05:55:20.432Z,45
2016-07-16T05:56:20.393Z,45
2016-07-16T05:57:21.179Z,45
2016-07-16T05:58:19.720Z,40
2016-07-16T05:59:19.723Z,40
2016-07-16T06:00:21.068Z,35
2016-07-16T06:01:21.054Z,35
2016-07-16T06:02:20.289Z,35
2016-07-16T06:03:20.267Z,35
2016-07-16T06:04:20.260Z,40
2016-07-16T06:05:19.546Z,40
2016-07-16T06:06:20.226Z,40
2016-07-16T06:07:20.290Z,45
2016-07-16T06:08:20.204Z,45
2016-07-16T06:09:20.254Z,45
2016-07-16T06:10:20.900Z,40
2016-07-16T06:11:20.926Z,40
2016-07-16T06:12:20.860Z,40
2016-07-16T06:13:20.866Z,35
2016-07-16T06:14:20.127Z,35
2016-07-16T06:15:20.123Z,35
2016-07-16T06:16:20.100Z,35
2016-07-16T06:17:20.086Z,35
2016-07-16T06:18:19.501Z,35
2016-07-16T06:19:20.052Z,40
2016-07-16T06:20:20.047Z,45
2016-07-16T06:21:20.055Z,50
2016-07-16T06:22:20.747Z,55
2016-07-16T06:23:20.754Z,60
2016-07-16T06:24:20.699Z,65
2016-07-16T06:25:20.025Z,65
2016-07-16T06:26:20.050Z,80
2016-07-16T06:27:20.691Z,95
2016-07-16T06:28:20.666Z,115
2016-07-16T06:29:19.930Z,125
2016-07-16T06:30:20.626Z,125
2016-07-16T06:31:19.884Z,120
2016-07-16T06:32:20.607Z,125
2016-07-16T06:33:19.147Z,120
2016-07-16T06:34:20.579Z,125
2016-07-16T06:35:20.609Z,130
2016-07-16T06:36:20.590Z,135
2016-07-16T06:37:20.525Z,140
2016-07-16T06:38:20.530Z,145
2016-07-16T06:39:20.548Z,140
2016-07-16T06:40:19.764Z,135
2016-07-16T06:41:19.768Z,120
2016-07-16T06:42:20.477Z,115
2016-07-16T06:43:20.470Z,100
2016-07-16T06:44:19.781Z,85
2016-07-16T06:45:19.706Z,80
2016-07-16T06:46:20.421Z,70
2016-07-16T06:47:19.050Z,70
2016-07-16T06:48:19.729Z,70
2016-07-16T06:49:19.690Z,65
2016-07-16T06:50:20.379Z,65
2016-07-16T06:51:18.920Z,60
2016-07-16T06:52:19.670Z,55
2016-07-16T06:53:20.347Z,50
2016-07-16T06:54:20.337Z,45
2016-07-16T06:55:20.317Z,45
2016-07-16T06:56:19.601Z,45
2016-07-16T06:57:18.841Z,45
2016-07-16T06:58:19.660Z,45
2016-07-16T06:59:20.299Z,45
2016-07-16T07:00:19.561Z,45
2016-07-16T07:01:20.230Z,45
2016-07-16T07:02:19.561Z,50
2016-07-16T07:03:20.198Z,50
2016-07-16T07:04:20.179Z,50
2016-07-16T07:05:18.737Z,50
2016-07-16T07:06:20.221Z,50
2016-07-16T07:07:19.426Z,55
2016-07-16T07:08:19.430Z,55
2016-07-16T07:09:20.139Z,60
2016-07-16T07:10:19.424Z,60
2016-07-16T07:11:19.381Z,60
2016-07-16T07:12:20.168Z,60
2016-07-16T07:13:19.360Z,65
2016-07-16T07:14:19.436Z,65
2016-07-16T07:15:18.627Z,65
2016-07-16T07:16:20.091Z,65
2016-07-16T07:17:20.038Z,65
2016-07-16T07:18:20.001Z,60
2016-07-16T07:19:18.557Z,55
2016-07-16T07:20:20.051Z,50
2016-07-16T07:21:19.978Z,50
2016-07-16T07:22:19.247Z,45
2016-07-16T07:23:19.240Z,45
2016-07-16T07:24:18.488Z,45
2016-07-16T07:25:18.465Z,40
2016-07-16T07:26:19.172Z,40
2016-07-16T07:27:19.895Z,45
2016-07-16T07:28:19.150Z,45
2016-07-16T07:29:19.152Z,45
2016-07-16T07:30:19.142Z,45
2016-07-16T07:31:19.840Z,45
2016-07-16T07:32:18.401Z,45
2016-07-16T07:33:19.811Z,50
2016-07-16T07:34:19.088Z,50
2016-07-16T07:35:18.428Z,50
2016-07-16T07:36:19.109Z,50
2016-07-16T07:37:19.770Z,50
2016-07-16T07:38:18.321Z,55
2016-07-16T07:39:19.759Z,55
2016-07-16T07:40:19.001Z,55
2016-07-16T07:41:18.991Z,55
2016-07-16T07:42:18.967Z,60
2016-07-16T07:43:18.950Z,60
2016-07-16T07:44:18.970Z,65
2016-07-16T07:45:19.658Z,65
2016-07-16T07:46:19.690Z,65
2016-07-16T07:47:19.632Z,65
2016-07-16T07:48:18.920Z,65
2016-07-16T07:49:18.949Z,65
2016-07-16T07:50:19.600Z,70
2016-07-16T07:51:18.870Z,70
2016-07-16T07:52:19.568Z,70
2016-07-16T07:53:19.571Z,70
2016-07-16T07:54:19.540Z,75
2016-07-16T07:55:19.514Z,80
2016-07-16T07:56:18.800Z,85
2016-07-16T07:57:18.776Z,85
2016-07-16T07:58:18.782Z,85
2016-07-16T07:59:19.480Z,80
2016-07-16T08:00:18.026Z,75
2016-07-16T08:01:18.778Z,70
2016-07-16T08:02:18.731Z,70
2016-07-16T08:03:17.996Z,70
2016-07-16T08:04:18.709Z,70
2016-07-16T08:05:19.390Z,70
2016-07-16T08:06:19.397Z,75
2016-07-16T08:07:18.718Z,80
2016-07-16T08:08:19.350Z,80
2016-07-16T08:09:18.619Z,85
2016-07-16T08:10:17.899Z,80
2016-07-16T08:11:19.301Z,80
2016-07-16T08:12:19.292Z,75
2016-07-16T08:13:17.868Z,70
2016-07-16T08:14:18.556Z,70
2016-07-16T08:15:18.561Z,70
2016-07-16T08:16:17.102Z,75
2016-07-16T08:17:18.583Z,75
2016-07-16T08:18:19.230Z,75
2016-07-16T08:19:17.067Z,70
2016-07-16T08:20:18.480Z,70
2016-07-16T08:21:17.746Z,70
2016-07-16T08:22:19.181Z,80
2016-07-16T08:23:17.747Z,85
2016-07-16T08:24:19.151Z,90
2016-07-16T08:25:19.138Z,80
2016-07-16T08:26:19.125Z,80
2016-07-16T08:27:19.253Z,75
2016-07-16T08:28:16.949Z,75
2016-07-16T08:29:18.393Z,70
2016-07-16T08:30:18.356Z,70
2016-07-16T08:31:19.057Z,70
2016-07-16T08:32:17.668Z,70
2016-07-16T08:33:19.071Z,65
2016-07-16T08:34:19.018Z,65
2016-07-16T08:35:18.347Z,65
2016-07-16T08:36:18.269Z,65
2016-07-16T08:37:18.268Z,70
2016-07-16T08:38:17.549Z,75
2016-07-16T08:39:18.271Z,75
2016-07-16T08:40:18.948Z,70
2016-07-16T08:41:18.249Z,70
2016-07-16T08:42:18.919Z,65
2016-07-16T08:43:18.195Z,70
2016-07-16T08:44:18.198Z,70
2016-07-16T08:45:17.443Z,75
2016-07-16T08:46:18.148Z,80
2016-07-16T08:47:18.152Z,85
2016-07-16T08:48:18.149Z,85
2016-07-16T08:49:18.840Z,90
2016-07-16T08:50:18.096Z,85
2016-07-16T08:51:17.367Z,85
2016-07-16T08:52:18.810Z,85
2016-07-16T08:53:18.057Z,90
2016-07-16T08:54:18.769Z,105
2016-07-16T08:55:18.046Z,105
2016-07-16T08:56:18.744Z,105
2016-07-16T08:57:15.861Z,105
2016-07-16T08:58:17.991Z,110
2016-07-16T08:59:18.011Z,110
2016-07-16T09:00:18.713Z,110
2016-07-16T09:01:16.539Z,110
2016-07-16T09:02:18.661Z,110
2016-07-16T09:03:17.949Z,105
2016-07-16T09:04:17.251Z,105
2016-07-16T09:05:18.700Z,105
2016-07-16T09:06:18.630Z,110
2016-07-16T09:07:18.642Z,110
2016-07-16T09:08:18.589Z,110
2016-07-16T09:09:17.871Z,110
2016-07-16T09:10:17.850Z,115
2016-07-16T09:11:18.029Z,120
2016-07-16T09:12:17.136Z,125
2016-07-16T09:13:17.806Z,130
2016-07-16T09:14:17.122Z,120
2016-07-16T09:15:17.080Z,110
2016-07-16T09:16:17.789Z,105
2016-07-16T09:17:17.059Z,100
2016-07-16T09:18:17.762Z,100
2016-07-16T09:19:17.804Z,95
2016-07-16T09:20:17.068Z,100
2016-07-16T09:21:18.473Z,90
2016-07-16T09:22:17.739Z,90
2016-07-16T09:23:16.972Z,95
2016-07-16T09:24:16.976Z,100
2016-07-16T09:25:17.725Z,110
2016-07-16T09:26:17.639Z,110
2016-07-16T09:27:16.221Z,120
2016-07-16T09:28:17.630Z,120
2016-07-16T09:29:16.909Z,120
2016-07-16T09:30:17.616Z,115
2016-07-16T09:31:16.885Z,110
2016-07-16T09:32:18.446Z,110
2016-07-16T09:33:17.584Z,110
2016-07-16T09:34:18.339Z,105
2016-07-16T09:35:18.277Z,110
2016-07-16T09:36:16.841Z,105
2016-07-16T09:37:18.241Z,110
2016-07-16T09:38:17.553Z,110
2016-07-16T09:39:16.789Z,105
2016-07-16T09:40:17.572Z,100
2016-07-16T09:41:18.209Z,95
2016-07-16T09:42:18.250Z,95
2016-07-16T09:43:18.169Z,90
2016-07-16T09:44:18.181Z,90
2016-07-16T09:45:16.718Z,95
2016-07-16T09:46:17.471Z,95
2016-07-16T09:47:16.677Z,95
2016-07-16T09:48:16.682Z,95
2016-07-16T09:49:15.963Z,95
2016-07-16T09:50:18.090Z,90
2016-07-16T09:51:18.083Z,85
2016-07-16T09:52:18.070Z,85
2016-07-16T09:53:15.177Z,85
2016-07-16T09:54:18.040Z,85
2016-07-16T09:55:18.020Z,80
2016-07-16T09:56:16.560Z,80
2016-07-16T09:57:17.994Z,80
2016-07-16T09:58:18.011Z,80
2016-07-16T09:59:17.246Z,80
2016-07-16T10:00:17.251Z,80
2016-07-16T10:01:17.238Z,80
2016-07-16T10:02:17.940Z,85
2016-07-16T10:03:16.515Z,90
2016-07-16T10:04:16.478Z,95
2016-07-16T10:05:17.910Z,105
2016-07-16T10:06:17.969Z,110
2016-07-16T10:07:17.169Z,120
2016-07-16T10:08:17.179Z,130
2016-07-16T10:09:17.862Z,140
2016-07-16T10:10:17.122Z,145
2016-07-16T10:11:17.835Z,135
2016-07-16T10:12:17.822Z,130
2016-07-16T10:13:17.815Z,130
2016-07-16T10:14:17.083Z,135
2016-07-16T10:15:17.080Z,140
2016-07-16T10:16:16.335Z,150
2016-07-16T10:17:15.642Z,145
2016-07-16T10:18:17.051Z,145
2016-07-16T10:19:17.028Z,145
2016-07-16T10:20:17.030Z,145
2016-07-16T10:21:15.570Z,140
2016-07-16T10:22:17.001Z,135
2016-07-16T10:23:17.015Z,135
2016-07-16T10:24:17.693Z,135
2016-07-16T10:25:16.248Z,135
2016-07-16T10:26:16.950Z,140
2016-07-16T10:27:16.230Z,145
2016-07-16T10:28:16.221Z,145
2016-07-16T10:29:16.920Z,145
2016-07-16T10:30:16.923Z,175
2016-07-16T10:32:15.537Z,160
2016-07-16T10:33:16.182Z,170
2016-07-16T10:34:17.579Z,185
2016-07-16T10:35:17.552Z,185
2016-07-16T10:36:17.549Z,165
2016-07-16T10:37:16.827Z,150
2016-07-16T10:38:15.394Z,140
2016-07-16T10:39:16.952Z,125
2016-07-16T10:40:17.539Z,115
2016-07-16T10:41:16.073Z,105
2016-07-16T10:42:16.770Z,100
2016-07-16T10:43:16.072Z,100
2016-07-16T10:44:16.742Z,100
2016-07-16T10:45:16.018Z,105
2016-07-16T10:46:16.029Z,105
2016-07-16T10:47:17.434Z,105
2016-07-16T10:48:16.712Z,110
2016-07-16T10:49:16.752Z,120
2016-07-16T10:50:16.682Z,135
2016-07-16T10:51:16.676Z,150
2016-07-16T10:52:16.648Z,165
2016-07-16T10:53:16.640Z,165
2016-07-16T10:54:16.638Z,165
2016-07-16T10:55:17.339Z,155
2016-07-16T10:56:17.339Z,160
2016-07-16T10:57:15.897Z,160
2016-07-16T10:58:16.600Z,160
2016-07-16T10:59:16.580Z,155
2016-07-16T11:00:15.870Z,150
2016-07-16T11:01:16.555Z,140
2016-07-16T11:02:16.532Z,135
2016-07-16T11:03:15.811Z,135
2016-07-16T11:04:17.230Z,140
2016-07-16T11:05:15.781Z,145
2016-07-16T11:06:16.502Z,145
2016-07-16T11:07:17.251Z,150
2016-07-16T11:08:15.919Z,150
2016-07-16T11:09:16.492Z,155
2016-07-16T11:10:16.459Z,165
2016-07-16T11:11:16.455Z,170
2016-07-16T11:12:16.429Z,160
2016-07-16T11:13:16.440Z,155
2016-07-16T11:14:17.147Z,170
2016-07-16T11:15:15.690Z,205
2016-07-16T11:16:17.122Z,185
2016-07-16T11:17:14.972Z,175
2016-07-16T11:18:15.672Z,175
2016-07-16T11:19:17.121Z,185
2016-07-16T11:20:16.363Z,170
2016-07-16T11:21:17.052Z,165
2016-07-16T11:22:16.331Z,170
2016-07-16T11:23:14.906Z,170
2016-07-16T11:24:14.892Z,165
2016-07-16T11:25:17.019Z,155
2016-07-16T11:26:16.299Z,145
2016-07-16T11:27:17.031Z,135
2016-07-16T11:28:16.273Z,135
2016-07-16T11:29:16.271Z,135
2016-07-16T11:30:14.860Z,130
2016-07-16T11:31:15.523Z,125
2016-07-16T11:32:16.967Z,120
2016-07-16T11:33:16.241Z,125
2016-07-16T11:34:16.939Z,125
2016-07-16T11:35:16.922Z,125
2016-07-16T11:36:15.528Z,120
2016-07-16T11:37:16.944Z,115
2016-07-16T11:38:14.778Z,110
2016-07-16T11:39:14.732Z,115
2016-07-16T11:40:16.151Z,120
2016-07-16T11:41:15.449Z,125
2016-07-16T11:42:16.919Z,120
2016-07-16T11:43:15.406Z,115
2016-07-16T11:44:16.130Z,110
2016-07-16T11:45:15.469Z,110
2016-07-16T11:46:16.092Z,110
2016-07-16T11:47:16.799Z,110
2016-07-16T11:48:14.654Z,110
2016-07-16T11:49:16.056Z,110
2016-07-16T11:50:16.830Z,110
2016-07-16T11:51:16.030Z,100
2016-07-16T11:52:16.731Z,95
2016-07-16T11:53:16.026Z,95
2016-07-16T11:54:16.006Z,95
2016-07-16T11:55:16.736Z,100
2016-07-16T11:56:15.989Z,110
2016-07-16T11:57:15.281Z,110
2016-07-16T11:58:16.711Z,110
2016-07-16T11:59:16.716Z,105
2016-07-16T12:00:15.249Z,100
2016-07-16T12:01:15.231Z,100
2016-07-16T12:02:15.969Z,95
2016-07-16T12:03:16.632Z,95
2016-07-16T12:04:15.940Z,95
2016-07-16T12:05:15.188Z,95
2016-07-16T12:06:15.171Z,100
2016-07-16T12:07:15.910Z,105
2016-07-16T12:08:15.870Z,105
2016-07-16T12:09:15.852Z,105
2016-07-16T12:10:15.112Z,110
2016-07-16T12:11:15.854Z,110
2016-07-16T12:12:15.112Z,110
2016-07-16T12:13:16.508Z,110
2016-07-16T12:14:15.083Z,110
2016-07-16T12:15:15.806Z,110
2016-07-16T12:16:16.484Z,110
2016-07-16T12:17:15.825Z,110
2016-07-16T12:18:16.458Z,105
2016-07-16T12:19:16.449Z,105
2016-07-16T12:20:15.745Z,105
2016-07-16T12:21:15.099Z,105
2016-07-16T12:22:16.431Z,105
2016-07-16T12:23:15.727Z,105
2016-07-16T12:24:15.728Z,110
2016-07-16T12:25:15.807Z,110
2016-07-16T12:26:16.489Z,115
2016-07-16T12:27:14.270Z,115
2016-07-16T12:28:15.680Z,110
2016-07-16T12:29:15.709Z,105
2016-07-16T12:30:16.360Z,105
2016-07-16T12:31:16.389Z,105
2016-07-16T12:32:14.988Z,105
2016-07-16T12:33:13.507Z,105
2016-07-16T12:34:16.319Z,105
2016-07-16T12:35:14.917Z,110
2016-07-16T12:36:15.567Z,115
2016-07-16T12:37:15.618Z,120
2016-07-16T12:38:14.831Z,125
2016-07-16T12:39:15.547Z,120
2016-07-16T12:40:15.589Z,120
2016-07-16T12:41:15.598Z,110
2016-07-16T12:42:15.559Z,110
2016-07-16T12:43:16.238Z,110
2016-07-16T12:44:14.862Z,105
2016-07-16T12:45:14.792Z,100
2016-07-16T12:46:15.467Z,95
2016-07-16T12:47:15.459Z,95
2016-07-16T12:48:14.738Z,95
2016-07-16T12:49:15.431Z,100
2016-07-16T12:50:15.432Z,100
2016-07-16T12:51:16.169Z,95
2016-07-16T12:52:14.741Z,100
2016-07-16T12:53:15.406Z,105
2016-07-16T12:54:13.996Z,110
2016-07-16T12:55:15.368Z,115
2016-07-16T12:56:16.080Z,120
2016-07-16T12:57:15.327Z,125
2016-07-16T12:58:14.698Z,130
2016-07-16T12:59:15.343Z,140
2016-07-16T13:00:16.040Z,150
2016-07-16T13:01:16.051Z,170
2016-07-16T13:02:15.369Z,185
2016-07-16T13:03:14.627Z,210
2016-07-16T13:04:15.989Z,190
2016-07-16T13:05:15.279Z,195
2016-07-16T13:06:15.290Z,195
2016-07-16T13:07:15.999Z,205
2016-07-16T13:08:14.536Z,220
2016-07-16T13:09:15.938Z,225
2016-07-16T13:10:15.948Z,225
2016-07-16T13:11:15.208Z,245
2016-07-16T13:12:15.208Z,265
2016-07-16T13:13:15.898Z,265
2016-07-16T13:14:14.597Z,260
2016-07-16T13:15:15.177Z,205
2016-07-16T13:16:15.950Z,190
2016-07-16T13:17:14.426Z,180
2016-07-16T13:18:15.979Z,175
2016-07-16T13:19:15.127Z,170
2016-07-16T13:20:15.129Z,170
2016-07-16T13:21:15.826Z,150
2016-07-16T13:22:15.107Z,145
2016-07-16T13:23:15.099Z,125
2016-07-16T13:24:15.808Z,115
2016-07-16T13:25:14.359Z,110
2016-07-16T13:26:14.335Z,100
2016-07-16T13:27:15.777Z,95
2016-07-16T13:28:15.118Z,90
2016-07-16T13:29:15.041Z,90
2016-07-16T13:30:14.314Z,95
2016-07-16T13:31:13.611Z,100
2016-07-16T13:32:14.991Z,105
2016-07-16T13:33:15.719Z,105
2016-07-16T13:34:15.067Z,100
2016-07-16T13:35:13.547Z,105
2016-07-16T13:36:14.257Z,115
2016-07-16T13:37:14.955Z,120
2016-07-16T13:38:14.947Z,125
2016-07-16T13:39:14.937Z,130
2016-07-16T13:40:14.219Z,135
2016-07-16T13:41:13.499Z,145
2016-07-16T13:42:14.215Z,150
2016-07-16T13:43:14.187Z,155
2016-07-16T13:44:14.897Z,160
2016-07-16T13:45:15.590Z,160
2016-07-16T13:46:14.871Z,155
2016-07-16T13:47:14.871Z,155
2016-07-16T13:48:14.860Z,145
2016-07-16T13:49:15.548Z,135
2016-07-16T13:50:14.895Z,135
2016-07-16T13:51:15.525Z,135
2016-07-16T13:52:14.828Z,135
2016-07-16T13:53:14.810Z,145
2016-07-16T13:54:14.081Z,155
2016-07-16T13:55:14.124Z,170
2016-07-16T13:56:15.484Z,175
2016-07-16T13:57:14.060Z,175
2016-07-16T13:58:15.480Z,180
2016-07-16T13:59:14.747Z,170
2016-07-16T14:00:14.738Z,165
2016-07-16T14:01:15.489Z,150
2016-07-16T14:02:14.719Z,140
2016-07-16T14:03:13.991Z,140
2016-07-16T14:04:14.703Z,150
2016-07-16T14:05:15.408Z,175
2016-07-16T14:06:13.965Z,195
2016-07-16T14:07:14.827Z,200
2016-07-16T14:08:15.370Z,190
2016-07-16T14:09:15.387Z,185
2016-07-16T14:10:13.221Z,180
2016-07-16T14:11:14.636Z,180
2016-07-16T14:12:13.917Z,180
2016-07-16T14:13:14.617Z,185
2016-07-16T14:14:14.631Z,185